Time;durP1;ratioP1;P1;durP2;ratioP2;P2;SDS_P1;SDS_P2;PMS_P1;PMS_P2;Temp;Humidity;BMP_temperature;BMP_pressure;BME280_temperature;BME280_humidity;BME280_pressure;Samples;Min_cycle;Max_cycle;Signal;HPM_P1;HPM_P2
2022/09/09 00:01:24;;;;;;;;;;;;;;;20.97;69.04;101207.13;2060347;28;19926;-74
2022/09/09 00:02:51;;;;;;;;;;;;;;;20.95;69.02;101214.31;2062242;28;20449;-74
2022/09/09 00:04:14;;;;;;;;;;;;;;;20.90;69.60;101198.31;2062265;28;19952;-73
2022/09/09 00:05:42;;;;;;;;;;;;;;;20.89;69.61;101203.69;2059881;28;20642;-74
2022/09/09 00:07:05;;;;;;;;;;;;;;;20.88;69.73;101202.81;2062811;28;19976;-74
2022/09/09 00:08:34;;;;;;;;;;;;;;;20.90;69.49;101205.47;2059295;28;19931;-74
2022/09/09 00:10:01;;;;;;;;;;;;;;;20.91;69.24;101202.75;2057817;28;19921;-74
2022/09/09 00:11:26;;;;;;;;;;;;;;;20.92;69.70;101209.03;2064343;28;19926;-74
2022/09/09 00:12:51;;;;;;;;;;;;;;;20.91;69.67;101208.13;2061379;28;19921;-74
2022/09/09 00:14:18;;;;;;;;;;;;;;;20.92;69.58;101209.91;2061332;28;19922;-74
2022/09/09 00:15:41;;;;;;;;;;;;;;;20.86;69.26;101211.81;2056273;28;20322;-73
2022/09/09 00:17:06;;;;;;;;;;;;;;;20.80;69.28;101202.09;2057642;28;20329;-74
2022/09/09 00:18:33;;;;;;;;;;;;;;;20.80;70.02;101204.78;2053517;28;20382;-74
2022/09/09 00:20:01;;;;;;;;;;;;;;;20.84;69.84;101213.66;2052638;28;19922;-73
2022/09/09 00:21:26;;;;;;;;;;;;;;;20.81;69.93;101205.63;2062597;28;19964;-74
2022/09/09 00:22:51;;;;;;;;;;;;;;;20.76;69.52;101200.38;2060043;28;20339;-74
2022/09/09 00:24:20;;;;;;;;;;;;;;;20.73;70.11;101208.50;2061516;28;19928;-74
2022/09/09 00:25:48;;;;;;;;;;;;;;;20.74;70.09;101199.53;2062892;28;20363;-74
2022/09/09 00:27:15;;;;;;;;;;;;;;;20.76;69.60;101200.38;2054215;28;19972;-74
2022/09/09 00:28:40;;;;;;;;;;;;;;;20.76;69.92;101186.94;2055091;28;19925;-74
2022/09/09 00:30:03;;;;;;;;;;;;;;;20.76;70.11;101194.13;2062310;28;19922;-74
2022/09/09 00:31:27;;;;;;;;;;;;;;;20.75;69.89;101195.03;2052206;28;20345;-74
2022/09/09 00:32:50;;;;;;;;;;;;;;;20.72;70.01;101198.66;2051680;28;19960;-74
2022/09/09 00:34:13;;;;;;;;;;;;;;;20.72;69.74;101198.66;2052190;28;19929;-74
2022/09/09 00:35:37;;;;;;;;;;;;;;;20.72;70.14;101195.09;2060024;28;19937;-74
2022/09/09 00:36:59;;;;;;;;;;;;;;;20.66;70.37;101202.34;2047750;28;19926;-74
2022/09/09 00:38:25;;;;;;;;;;;;;;;20.64;70.11;101203.28;2048575;28;20298;-74
2022/09/09 00:39:47;;;;;;;;;;;;;;;20.62;70.02;101189.91;2056436;28;19922;-74
2022/09/09 00:41:12;;;;;;;;;;;;;;;20.61;70.34;101200.69;2052369;28;19965;-74
2022/09/09 00:42:39;;;;;;;;;;;;;;;20.61;70.55;101200.69;2060214;28;20032;-74
2022/09/09 00:44:02;;;;;;;;;;;;;;;20.52;70.50;101200.84;2062338;28;19972;-74
2022/09/09 00:45:35;;;;;;;;;;;;;;;20.44;70.94;101200.97;2051879;28;19932;-74
2022/09/09 00:47:03;;;;;;;;;;;;;;;20.41;71.26;101201.03;2070531;28;19947;-74
2022/09/09 00:48:33;;;;;;;;;;;;;;;20.43;70.83;101199.19;2062752;28;19961;-74
2022/09/09 00:50:00;;;;;;;;;;;;;;;20.45;71.08;101197.38;2062497;28;19953;-74
2022/09/09 00:51:26;;;;;;;;;;;;;;;20.45;70.90;101197.38;2055105;28;19922;-74
2022/09/09 00:52:53;;;;;;;;;;;;;;;20.45;70.73;101200.06;2054756;28;20386;-74
2022/09/09 00:54:20;;;;;;;;;;;;;;;20.47;70.70;101200.94;2059548;28;19930;-74
2022/09/09 00:55:47;;;;;;;;;;;;;;;20.45;70.44;101199.19;2053359;28;19933;-74
2022/09/09 00:57:14;;;;;;;;;;;;;;;20.42;70.19;101192.06;2059375;28;19964;-74
2022/09/09 00:58:36;;;;;;;;;;;;;;;20.42;70.58;101197.41;2062116;28;19968;-74
2022/09/09 01:00:00;;;;;;;;;;;;;;;20.40;70.10;101199.25;2050673;28;19996;-74
2022/09/09 01:01:23;;;;;;;;;;;;;;;20.40;70.47;101193.91;2047936;28;19996;-74
2022/09/09 01:02:50;;;;;;;;;;;;;;;20.39;70.28;101201.97;2059267;28;20558;-74
2022/09/09 01:04:16;;;;;;;;;;;;;;;20.37;70.15;101196.63;2061302;28;19968;-74
2022/09/09 01:05:44;;;;;;;;;;;;;;;20.37;70.71;101198.41;2061341;28;20028;-74
2022/09/09 01:07:13;;;;;;;;;;;;;;;20.37;70.08;101196.63;2055769;28;19922;-73
2022/09/09 01:08:44;;;;;;;;;;;;;;;20.38;70.33;101198.41;2055241;28;19970;-74
2022/09/09 01:10:13;;;;;;;;;;;;;;;20.38;69.99;101201.09;2054648;28;19922;-74
2022/09/09 01:11:39;;;;;;;;;;;;;;;20.38;69.92;101200.19;2060757;28;19922;-74
2022/09/09 01:13:04;;;;;;;;;;;;;;;20.36;69.84;101205.56;2045265;29;19922;-74
2022/09/09 01:14:32;;;;;;;;;;;;;;;20.38;70.16;101209.13;2045385;28;20402;-74
2022/09/09 01:15:55;;;;;;;;;;;;;;;20.37;69.96;101207.34;2052636;28;19926;-75
2022/09/09 01:17:18;;;;;;;;;;;;;;;20.35;69.97;101208.31;2050116;28;19922;-74
2022/09/09 01:18:48;;;;;;;;;;;;;;;20.34;69.95;101210.09;2058383;28;20413;-75
2022/09/09 01:20:13;;;;;;;;;;;;;;;20.33;69.96;101213.69;2061904;28;19971;-74
2022/09/09 01:21:51;;;;;;;;;;;;;;;20.33;69.99;101213.69;2046965;29;20337;-74
2022/09/09 01:23:28;;;;;;;;;;;;;;;20.35;70.10;101211.00;2052234;28;19955;-74
2022/09/09 01:25:27;;;;;;;;;;;;;;;20.33;70.06;101213.69;2055464;28;19932;-75
2022/09/09 01:27:04;;;;;;;;;;;;;;;20.29;69.61;101215.50;2039140;28;19926;-74
2022/09/09 01:28:29;;;;;;;;;;;;;;;20.28;69.72;101216.41;2051660;28;19965;-74
2022/09/09 01:29:57;;;;;;;;;;;;;;;20.27;69.65;101217.34;2061048;28;19922;-74
2022/09/09 01:31:20;;;;;;;;;;;;;;;20.26;70.01;101212.00;2052528;28;19926;-74
2022/09/09 01:32:44;;;;;;;;;;;;;;;20.24;69.86;101213.81;2053259;28;20350;-74
2022/09/09 01:34:12;;;;;;;;;;;;;;;20.23;69.91;101214.72;2052721;28;19933;-74
2022/09/09 01:35:39;;;;;;;;;;;;;;;20.18;70.44;101214.78;2053911;28;19933;-74
2022/09/09 01:37:04;;;;;;;;;;;;;;;20.20;70.59;101222.81;2049583;28;19922;-74
2022/09/09 01:38:26;;;;;;;;;;;;;;;20.18;70.57;101219.28;2050957;28;19926;-74
2022/09/09 01:39:49;;;;;;;;;;;;;;;20.17;70.33;101214.81;2050918;28;19926;-74
2022/09/09 01:41:11;;;;;;;;;;;;;;;20.19;70.47;101221.03;2053842;28;19929;-74
2022/09/09 01:42:44;;;;;;;;;;;;;;;20.21;70.57;101230.84;2059215;28;19922;-74
2022/09/09 01:44:06;;;;;;;;;;;;;;;20.24;70.62;101225.41;2046052;28;19992;-74
2022/09/09 01:45:30;;;;;;;;;;;;;;;20.24;70.58;101224.53;2059304;28;20044;-74
2022/09/09 01:46:53;;;;;;;;;;;;;;;20.23;70.52;101231.69;2061045;28;19928;-74
2022/09/09 01:48:16;;;;;;;;;;;;;;;20.20;70.67;101222.81;2054605;28;20397;-74
2022/09/09 01:49:48;;;;;;;;;;;;;;;20.12;71.11;101224.72;2054813;28;19922;-74
2022/09/09 01:51:17;;;;;;;;;;;;;;;20.06;71.05;101227.50;2048196;29;19922;-73
2022/09/09 01:52:38;;;;;;;;;;;;;;;20.04;71.20;101224.84;2047992;28;19930;-74
2022/09/09 01:54:05;;;;;;;;;;;;;;;20.02;71.19;101226.66;2049055;28;20077;-74
2022/09/09 01:55:29;;;;;;;;;;;;;;;20.05;71.18;101228.41;2059771;28;19964;-74
2022/09/09 01:57:03;;;;;;;;;;;;;;;20.06;71.29;101220.38;2059680;28;19929;-74
2022/09/09 01:58:31;;;;;;;;;;;;;;;20.08;71.29;101213.19;2047545;29;19922;-73
2022/09/09 02:00:09;;;;;;;;;;;;;;;20.09;71.11;101233.69;2057153;28;20597;-73
2022/09/09 02:01:45;;;;;;;;;;;;;;;20.05;70.95;101229.31;2062997;28;19961;-74
2022/09/09 02:03:15;;;;;;;;;;;;;;;20.02;71.15;101229.34;2061761;28;19933;-74
2022/09/09 02:04:55;;;;;;;;;;;;;;;20.02;70.92;101228.50;2057070;28;19972;-74
2022/09/09 02:06:23;;;;;;;;;;;;;;;20.00;71.29;101224.94;2060201;28;19926;-74
2022/09/09 02:07:48;;;;;;;;;;;;;;;19.98;71.15;101224.06;2054911;28;19922;-74
2022/09/09 02:09:41;;;;;;;;;;;;;;;19.97;71.20;101228.53;2061572;28;20424;-74
2022/09/09 02:11:05;;;;;;;;;;;;;;;19.94;71.48;101225.91;2054071;28;19992;-74
2022/09/09 02:12:34;;;;;;;;;;;;;;;19.87;71.48;101218.88;2063928;28;20366;-74
2022/09/09 02:14:01;;;;;;;;;;;;;;;19.81;71.69;101214.50;2053753;28;20457;-74
2022/09/09 02:15:25;;;;;;;;;;;;;;;19.72;71.58;101213.75;2051636;28;19930;-74
2022/09/09 02:16:49;;;;;;;;;;;;;;;19.71;71.86;101214.66;2055091;28;19984;-73
2022/09/09 02:18:13;;;;;;;;;;;;;;;19.73;71.70;101221.75;2053353;28;20040;-74
2022/09/09 02:19:36;;;;;;;;;;;;;;;19.75;71.88;101213.72;2060084;28;19929;-74
2022/09/09 02:21:06;;;;;;;;;;;;;;;19.80;72.02;101214.53;2060707;28;19988;-74
2022/09/09 02:22:30;;;;;;;;;;;;;;;19.80;71.49;101214.53;2054952;28;19929;-74
2022/09/09 02:23:55;;;;;;;;;;;;;;;19.80;71.62;101214.53;2052163;28;19922;-74
2022/09/09 02:25:18;;;;;;;;;;;;;;;19.80;71.58;101215.41;2060434;28;19980;-74
2022/09/09 02:26:41;;;;;;;;;;;;;;;19.77;71.48;101218.13;2054805;28;20405;-74
2022/09/09 02:28:05;;;;;;;;;;;;;;;19.75;71.67;101213.72;2062983;28;19922;-74
2022/09/09 02:29:30;;;;;;;;;;;;;;;19.74;71.75;101218.19;2053292;28;19973;-74
2022/09/09 02:30:54;;;;;;;;;;;;;;;19.76;71.11;101213.66;2052217;28;19922;-74
2022/09/09 02:32:24;;;;;;;;;;;;;;;19.77;71.40;101211.88;2057199;28;19964;-74
2022/09/09 02:33:49;;;;;;;;;;;;;;;19.75;71.19;101211.91;2052706;28;20283;-74
2022/09/09 02:35:11;;;;;;;;;;;;;;;19.75;71.34;101211.91;2054811;28;19937;-74
2022/09/09 02:36:39;;;;;;;;;;;;;;;19.70;71.41;101204.84;2051602;28;20342;-74
2022/09/09 02:38:03;;;;;;;;;;;;;;;19.67;71.31;101207.56;2060638;28;19948;-74
2022/09/09 02:39:26;;;;;;;;;;;;;;;19.63;71.35;101204.03;2047110;29;20367;-74
2022/09/09 02:40:47;;;;;;;;;;;;;;;19.62;71.57;101204.09;2050000;28;20618;-74
2022/09/09 02:42:14;;;;;;;;;;;;;;;19.63;71.21;101198.69;2044476;29;19922;-74
2022/09/09 02:43:38;;;;;;;;;;;;;;;19.63;71.21;101203.16;2051716;28;19957;-74
2022/09/09 02:45:06;;;;;;;;;;;;;;;19.63;71.55;101204.03;2048761;29;19954;-73
2022/09/09 02:46:36;;;;;;;;;;;;;;;19.64;71.46;101204.91;2047553;28;19922;-74
2022/09/09 02:48:05;;;;;;;;;;;;;;;19.63;71.08;101211.19;2052230;28;19922;-74
2022/09/09 02:49:33;;;;;;;;;;;;;;;19.62;71.18;101207.66;2045919;28;19926;-74
2022/09/09 02:50:58;;;;;;;;;;;;;;;19.62;70.92;101213.00;2050011;28;19930;-75
2022/09/09 02:52:26;;;;;;;;;;;;;;;19.59;71.36;101213.03;2049056;28;19925;-74
2022/09/09 02:53:50;;;;;;;;;;;;;;;19.53;71.42;101210.44;2050082;28;20008;-74
2022/09/09 02:55:16;;;;;;;;;;;;;;;19.49;71.56;101208.72;2060421;28;19976;-74
2022/09/09 02:56:47;;;;;;;;;;;;;;;19.38;72.03;101216.84;2055499;28;19926;-73
2022/09/09 02:58:11;;;;;;;;;;;;;;;19.31;72.42;101220.50;2055631;28;20018;-74
2022/09/09 02:59:33;;;;;;;;;;;;;;;19.31;72.58;101216.94;2050979;28;19972;-74
2022/09/09 03:00:58;;;;;;;;;;;;;;;19.35;72.50;101214.22;2059010;28;20020;-74
2022/09/09 03:02:21;;;;;;;;;;;;;;;19.40;71.78;101222.19;2054890;28;20745;-74
2022/09/09 03:03:47;;;;;;;;;;;;;;;19.39;71.70;101223.97;2052589;28;19930;-74
2022/09/09 03:05:12;;;;;;;;;;;;;;;19.41;71.63;101221.28;2055304;28;19925;-74
2022/09/09 03:06:36;;;;;;;;;;;;;;;19.44;71.84;101224.81;2054311;28;19961;-74
2022/09/09 03:08:09;;;;;;;;;;;;;;;19.47;71.16;101223.91;2063824;28;19922;-75
2022/09/09 03:09:30;;;;;;;;;;;;;;;19.49;71.36;101219.44;2056041;28;19922;-74
2022/09/09 03:10:53;;;;;;;;;;;;;;;19.47;71.37;101223.91;2051447;28;19952;-74
2022/09/09 03:12:16;;;;;;;;;;;;;;;19.45;71.44;101225.69;2051657;28;20086;-74
2022/09/09 03:13:39;;;;;;;;;;;;;;;19.44;71.24;101223.91;2050550;28;19922;-74
2022/09/09 03:15:01;;;;;;;;;;;;;;;19.40;71.27;101232.91;2051324;28;19933;-74
2022/09/09 03:16:25;;;;;;;;;;;;;;;19.42;71.33;101231.09;2051235;28;19926;-74
2022/09/09 03:17:47;;;;;;;;;;;;;;;19.43;71.65;101230.16;2058573;28;20110;-74
2022/09/09 03:19:10;;;;;;;;;;;;;;;19.47;71.73;101231.97;2051652;28;20310;-74
2022/09/09 03:20:31;;;;;;;;;;;;;;;19.49;71.80;101235.50;2058701;28;19922;-73
2022/09/09 03:21:54;;;;;;;;;;;;;;;19.52;71.80;101237.25;2038357;29;19930;-73
2022/09/09 03:23:15;;;;;;;;;;;;;;;19.54;72.04;101222.94;2049101;28;20319;-74
2022/09/09 03:24:37;;;;;;;;;;;;;;;19.58;72.00;101218.41;2050836;28;20302;-74
2022/09/09 03:25:59;;;;;;;;;;;;;;;19.62;72.03;101221.03;2059837;28;19922;-74
2022/09/09 03:27:34;;;;;;;;;;;;;;;19.67;72.08;101216.50;2055915;28;19922;-74
2022/09/09 03:28:55;;;;;;;;;;;;;;;19.71;72.12;101226.25;2050056;28;19930;-74
2022/09/09 03:30:19;;;;;;;;;;;;;;;19.74;71.86;101233.38;2046506;28;20412;-74
2022/09/09 03:31:42;;;;;;;;;;;;;;;19.75;71.80;101225.31;2067056;28;20471;-74
2022/09/09 03:33:05;;;;;;;;;;;;;;;19.74;71.65;101231.56;2056003;28;20619;-74
2022/09/09 03:34:27;;;;;;;;;;;;;;;19.73;72.09;101232.47;2050749;28;20518;-74
2022/09/09 03:35:50;;;;;;;;;;;;;;;19.76;71.75;101226.16;2053885;28;19925;-74
2022/09/09 03:37:15;;;;;;;;;;;;;;;19.80;72.16;101228.81;2052640;28;20389;-74
2022/09/09 03:38:36;;;;;;;;;;;;;;;19.84;71.83;101225.16;2050931;28;19929;-74
2022/09/09 03:39:59;;;;;;;;;;;;;;;19.89;72.03;101231.31;2059343;28;20024;-74
2022/09/09 03:41:20;;;;;;;;;;;;;;;19.94;72.05;101236.66;2046127;28;19926;-73
2022/09/09 03:42:43;;;;;;;;;;;;;;;19.97;71.66;101235.69;2058753;28;20036;-74
2022/09/09 03:44:04;;;;;;;;;;;;;;;19.99;72.08;101226.72;2062213;28;20133;-74
2022/09/09 03:45:31;;;;;;;;;;;;;;;20.04;71.79;101238.25;2047533;28;19926;-74
2022/09/09 03:46:56;;;;;;;;;;;;;;;20.07;71.67;101223.94;2053972;28;19945;-73
2022/09/09 03:48:17;;;;;;;;;;;;;;;20.10;72.04;101243.50;2053946;28;20386;-74
2022/09/09 03:49:40;;;;;;;;;;;;;;;20.13;71.97;101242.59;2050928;28;19929;-74
2022/09/09 03:51:02;;;;;;;;;;;;;;;20.17;71.96;101237.16;2052633;28;19930;-74
2022/09/09 03:52:26;;;;;;;;;;;;;;;20.20;71.79;101238.91;2051783;28;19922;-74
2022/09/09 03:53:49;;;;;;;;;;;;;;;20.22;72.04;101237.06;2054468;28;19925;-74
2022/09/09 03:55:11;;;;;;;;;;;;;;;20.23;71.95;101237.03;2061625;28;19956;-74
2022/09/09 03:56:32;;;;;;;;;;;;;;;20.30;71.89;101243.19;2050399;28;20434;-74
2022/09/09 03:57:55;;;;;;;;;;;;;;;20.35;71.78;101243.19;2058527;28;19928;-74
2022/09/09 03:59:18;;;;;;;;;;;;;;;20.38;72.19;101240.44;2053243;28;19922;-74
2022/09/09 04:00:42;;;;;;;;;;;;;;;20.35;71.71;101244.03;2054948;28;20016;-74
2022/09/09 04:02:05;;;;;;;;;;;;;;;20.35;71.73;101243.19;2052812;28;19922;-74
2022/09/09 04:03:27;;;;;;;;;;;;;;;20.36;72.00;101244.91;2066852;28;19929;-73
2022/09/09 04:04:49;;;;;;;;;;;;;;;20.36;71.85;101242.22;2056577;28;19929;-74
2022/09/09 04:06:13;;;;;;;;;;;;;;;20.37;72.48;101238.66;2052102;28;19926;-74
2022/09/09 04:07:36;;;;;;;;;;;;;;;20.40;72.30;101244.88;2054960;28;19926;-74
2022/09/09 04:08:57;;;;;;;;;;;;;;;20.42;72.04;101234.97;2050864;28;20017;-74
2022/09/09 04:10:22;;;;;;;;;;;;;;;20.46;72.21;101235.81;2051651;28;20021;-75
2022/09/09 04:11:45;;;;;;;;;;;;;;;20.50;72.62;101235.72;2052113;28;19922;-74
2022/09/09 04:13:07;;;;;;;;;;;;;;;20.54;72.72;101237.47;2053932;28;19926;-75
2022/09/09 04:14:30;;;;;;;;;;;;;;;20.57;72.83;101233.81;2050589;28;19925;-74
2022/09/09 04:15:52;;;;;;;;;;;;;;;20.62;72.94;101238.19;2057930;28;19922;-74
2022/09/09 04:17:17;;;;;;;;;;;;;;;20.71;73.08;101247.00;2053779;28;19928;-75
2022/09/09 04:18:38;;;;;;;;;;;;;;;20.80;72.91;101244.16;2054003;28;19926;-74
2022/09/09 04:20:01;;;;;;;;;;;;;;;20.91;73.01;101240.34;2059595;28;20004;-75
2022/09/09 04:21:22;;;;;;;;;;;;;;;21.02;72.34;101245.50;2052478;28;19969;-75
2022/09/09 04:22:44;;;;;;;;;;;;;;;21.12;72.58;101239.03;2051180;28;19932;-74
2022/09/09 04:24:06;;;;;;;;;;;;;;;21.20;72.57;101236.25;2057921;28;19951;-74
2022/09/09 04:25:28;;;;;;;;;;;;;;;21.25;72.27;101243.28;2061430;28;20112;-74
2022/09/09 04:26:50;;;;;;;;;;;;;;;21.27;72.20;101243.22;2051009;28;20382;-75
2022/09/09 04:28:11;;;;;;;;;;;;;;;21.28;72.10;101245.88;2058193;28;20386;-74
2022/09/09 04:29:34;;;;;;;;;;;;;;;21.28;71.96;101245.88;2056272;28;19977;-74
2022/09/09 04:30:56;;;;;;;;;;;;;;;21.30;71.73;101244.06;2058570;28;20401;-74
2022/09/09 04:32:21;;;;;;;;;;;;;;;21.30;71.87;101244.06;2053188;28;19925;-75
2022/09/09 04:33:43;;;;;;;;;;;;;;;21.33;72.07;101235.91;2048549;28;20306;-74
2022/09/09 04:35:06;;;;;;;;;;;;;;;21.39;71.91;101246.56;2050919;28;19929;-74
2022/09/09 04:36:29;;;;;;;;;;;;;;;21.45;71.68;101241.06;2047148;28;19922;-74
2022/09/09 04:37:53;;;;;;;;;;;;;;;21.52;71.66;101249.00;2050883;28;20014;-74
2022/09/09 04:39:16;;;;;;;;;;;;;;;21.55;71.40;101246.22;2053381;28;20388;-74
2022/09/09 04:40:42;;;;;;;;;;;;;;;21.65;71.64;101246.00;2049654;28;20341;-74
2022/09/09 04:42:05;;;;;;;;;;;;;;;21.80;71.57;101242.94;2051839;28;20325;-74
2022/09/09 04:43:30;;;;;;;;;;;;;;;21.94;71.32;101237.25;2049543;28;19933;-74
2022/09/09 04:44:53;;;;;;;;;;;;;;;22.09;71.04;101249.50;2059102;28;19921;-74
2022/09/09 04:46:15;;;;;;;;;;;;;;;22.14;70.63;101250.25;2055514;28;20314;-74
2022/09/09 04:47:38;;;;;;;;;;;;;;;22.23;70.83;101239.28;2058767;28;19933;-74
2022/09/09 04:49:00;;;;;;;;;;;;;;;22.39;70.80;101242.47;2061126;28;19921;-74
2022/09/09 04:50:26;;;;;;;;;;;;;;;22.48;70.16;101240.44;2050838;28;19922;-74
2022/09/09 04:51:53;;;;;;;;;;;;;;;22.58;69.94;101246.44;2048656;28;19965;-74
2022/09/09 04:53:14;;;;;;;;;;;;;;;22.74;70.00;101242.47;2051021;28;20343;-74
2022/09/09 04:54:37;;;;;;;;;;;;;;;22.86;70.07;101244.81;2060449;28;19925;-74
2022/09/09 04:56:04;;;;;;;;;;;;;;;22.93;69.81;101240.16;2052917;28;19949;-73
2022/09/09 04:57:31;;;;;;;;;;;;;;;22.93;69.63;101249.13;2061782;28;19945;-74
2022/09/09 04:58:54;;;;;;;;;;;;;;;22.96;69.95;101245.47;2045563;29;19945;-74
2022/09/09 05:00:18;;;;;;;;;;;;;;;23.08;69.65;101244.25;2051279;28;19922;-74
2022/09/09 05:01:41;;;;;;;;;;;;;;;23.22;69.64;101245.63;2044881;28;19926;-74
2022/09/09 05:03:04;;;;;;;;;;;;;;;23.37;69.62;101252.34;2055545;28;19926;-74
2022/09/09 05:04:26;;;;;;;;;;;;;;;23.50;69.47;101240.31;2061448;28;19948;-74
2022/09/09 05:05:47;;;;;;;;;;;;;;;23.61;69.23;101240.00;2052415;28;19985;-74
2022/09/09 05:07:10;;;;;;;;;;;;;;;23.69;69.33;101246.06;2052484;28;20334;-74
2022/09/09 05:08:31;;;;;;;;;;;;;;;23.80;69.49;101241.19;2058868;28;19957;-74
2022/09/09 05:09:54;;;;;;;;;;;;;;;23.94;69.15;101244.34;2044958;29;20342;-74
2022/09/09 05:11:20;;;;;;;;;;;;;;;24.10;69.38;101248.31;2050045;28;19922;-74
2022/09/09 05:12:41;;;;;;;;;;;;;;;24.31;69.14;101248.56;2060070;28;19922;-73
2022/09/09 05:14:04;;;;;;;;;;;;;;;24.47;69.60;101244.44;2055407;28;19922;-74
2022/09/09 05:15:27;;;;;;;;;;;;;;;24.62;69.34;101239.38;2049678;28;20453;-75
2022/09/09 05:16:49;;;;;;;;;;;;;;;24.78;69.01;101239.72;2042200;29;20354;-75
2022/09/09 05:18:12;;;;;;;;;;;;;;;24.97;68.86;101231.88;2055775;28;20464;-74
2022/09/09 05:19:35;;;;;;;;;;;;;;;25.15;67.71;101233.88;2052256;28;21199;-74
2022/09/09 05:21:00;;;;;;;;;;;;;;;25.32;68.26;101231.47;2053819;28;19960;-73
2022/09/09 05:22:23;;;;;;;;;;;;;;;25.50;67.30;101228.97;2051713;28;20264;-73
2022/09/09 05:23:46;;;;;;;;;;;;;;;25.68;67.48;101229.16;2049960;28;20295;-73
2022/09/09 05:25:10;;;;;;;;;;;;;;;25.86;66.81;101229.41;2050351;28;20029;-74
2022/09/09 05:26:32;;;;;;;;;;;;;;;26.02;66.77;101231.41;2057169;28;19929;-74
2022/09/09 05:27:54;;;;;;;;;;;;;;;26.15;67.01;101235.38;2059600;28;20286;-75
2022/09/09 05:29:19;;;;;;;;;;;;;;;26.30;66.57;101227.59;2051955;28;19954;-74
2022/09/09 05:30:40;;;;;;;;;;;;;;;26.44;65.75;101226.09;2051625;28;19928;-74
2022/09/09 05:32:02;;;;;;;;;;;;;;;26.58;65.85;101231.75;2057572;28;20024;-74
2022/09/09 05:33:26;;;;;;;;;;;;;;;26.73;66.04;101222.09;2054485;28;20644;-74
2022/09/09 05:34:49;;;;;;;;;;;;;;;26.87;64.55;101225.06;2048224;29;19944;-75
2022/09/09 05:36:13;;;;;;;;;;;;;;;27.01;64.46;101227.22;2055687;28;19988;-75
2022/09/09 05:37:36;;;;;;;;;;;;;;;27.13;63.96;101226.66;2056805;28;19957;-74
2022/09/09 05:38:58;;;;;;;;;;;;;;;27.24;62.79;101223.47;2056350;28;19929;-74
2022/09/09 05:40:23;;;;;;;;;;;;;;;27.36;61.90;101228.31;2044877;29;19929;-74
2022/09/09 05:41:46;;;;;;;;;;;;;;;27.49;62.24;101225.91;2045564;29;20426;-74
2022/09/09 05:43:09;;;;;;;;;;;;;;;27.59;60.51;101221.81;2038946;29;19927;-75
2022/09/09 05:44:31;;;;;;;;;;;;;;;27.71;61.15;101222.09;2053204;28;20393;-74
2022/09/09 05:46:00;;;;;;;;;;;;;;;27.84;60.26;101221.50;2055039;28;19929;-74
2022/09/09 05:47:23;;;;;;;;;;;;;;;27.98;61.53;101229.88;2054943;28;19922;-74
2022/09/09 05:48:48;;;;;;;;;;;;;;;28.14;61.02;101231.81;2051387;28;20304;-74
2022/09/09 05:50:11;;;;;;;;;;;;;;;28.29;60.65;101232.84;2052975;28;19922;-74
2022/09/09 05:51:34;;;;;;;;;;;;;;;28.43;59.57;101227.59;2050301;28;19975;-74
2022/09/09 05:53:04;;;;;;;;;;;;;;;28.60;59.66;101231.28;2055429;28;19977;-74
2022/09/09 05:54:27;;;;;;;;;;;;;;;28.74;59.42;101229.66;2054658;28;19922;-74
2022/09/09 05:55:49;;;;;;;;;;;;;;;28.86;58.20;101230.84;2054173;28;19922;-75
2022/09/09 05:57:11;;;;;;;;;;;;;;;28.96;57.29;101232.09;2062822;28;19945;-74
2022/09/09 05:58:32;;;;;;;;;;;;;;;29.04;56.99;101235.31;2062966;28;19929;-74
2022/09/09 05:59:55;;;;;;;;;;;;;;;28.96;56.93;101226.66;2056669;28;19929;-74
2022/09/09 06:01:17;;;;;;;;;;;;;;;28.65;56.50;101237.38;2054487;28;20277;-74
2022/09/09 06:02:41;;;;;;;;;;;;;;;28.22;57.46;101234.13;2059944;28;19922;-75
2022/09/09 06:04:06;;;;;;;;;;;;;;;27.95;58.16;101235.47;2053929;28;19937;-75
2022/09/09 06:05:29;;;;;;;;;;;;;;;27.98;57.57;101233.47;2051419;28;20459;-74
2022/09/09 06:06:52;;;;;;;;;;;;;;;28.13;57.23;101230.00;2051786;28;19929;-75
2022/09/09 06:08:16;;;;;;;;;;;;;;;28.37;56.69;101236.06;2054250;28;20299;-75
2022/09/09 06:09:38;;;;;;;;;;;;;;;28.61;56.85;101241.22;2067518;28;19921;-75
2022/09/09 06:11:02;;;;;;;;;;;;;;;28.85;56.35;101240.84;2057424;28;19922;-75
2022/09/09 06:12:25;;;;;;;;;;;;;;;29.12;55.55;101241.22;2054011;28;19922;-75
2022/09/09 06:13:47;;;;;;;;;;;;;;;29.30;55.35;101239.31;2054521;28;19928;-75
2022/09/09 06:15:10;;;;;;;;;;;;;;;29.48;53.31;101241.06;2054073;28;19948;-75
2022/09/09 06:16:33;;;;;;;;;;;;;;;29.58;54.11;101238.72;2051257;28;19969;-75
2022/09/09 06:17:56;;;;;;;;;;;;;;;29.66;54.26;101242.78;2052015;28;19922;-75
2022/09/09 06:19:20;;;;;;;;;;;;;;;29.78;53.68;101243.03;2057379;28;19969;-74
2022/09/09 06:20:44;;;;;;;;;;;;;;;29.84;52.80;101240.84;2057259;28;19929;-74
2022/09/09 06:22:06;;;;;;;;;;;;;;;29.84;52.28;101243.59;2062610;28;19934;-74
2022/09/09 06:23:31;;;;;;;;;;;;;;;29.85;53.16;101239.00;2054217;28;20028;-74
2022/09/09 06:24:53;;;;;;;;;;;;;;;29.88;52.46;101239.69;2051535;28;19929;-74
2022/09/09 06:26:17;;;;;;;;;;;;;;;29.92;52.90;101240.47;2043461;29;20398;-75
2022/09/09 06:27:41;;;;;;;;;;;;;;;30.03;53.12;101249.75;2052933;28;20365;-75
2022/09/09 06:29:03;;;;;;;;;;;;;;;30.11;51.98;101246.59;2051492;28;19922;-74
2022/09/09 06:30:26;;;;;;;;;;;;;;;30.09;51.88;101246.69;2049012;28;19929;-75
2022/09/09 06:31:49;;;;;;;;;;;;;;;30.13;52.59;101244.63;2057185;28;19925;-74
2022/09/09 06:33:16;;;;;;;;;;;;;;;30.24;52.58;101238.59;2054897;28;20486;-75
2022/09/09 06:34:39;;;;;;;;;;;;;;;30.31;51.74;101246.31;2059467;28;20021;-75
2022/09/09 06:36:01;;;;;;;;;;;;;;;30.38;51.83;101247.72;2060830;28;19928;-75
2022/09/09 06:37:23;;;;;;;;;;;;;;;30.50;52.64;101246.13;2054682;28;19929;-74
2022/09/09 06:38:47;;;;;;;;;;;;;;;30.60;51.63;101249.16;2058440;28;20190;-75
2022/09/09 06:40:10;;;;;;;;;;;;;;;30.72;50.73;101252.03;2056617;28;19948;-75
2022/09/09 06:41:33;;;;;;;;;;;;;;;30.77;50.33;101251.78;2053086;28;19930;-74
2022/09/09 06:43:00;;;;;;;;;;;;;;;30.75;49.64;101260.03;2060509;28;19984;-75
2022/09/09 06:44:34;;;;;;;;;;;;;;;30.80;50.60;101248.84;2063083;28;19958;-74
2022/09/09 06:45:56;;;;;;;;;;;;;;;30.84;50.24;101248.59;2054657;28;19922;-74
2022/09/09 06:47:19;;;;;;;;;;;;;;;30.86;49.80;101241.16;2053200;28;19922;-75
2022/09/09 06:48:42;;;;;;;;;;;;;;;30.92;49.42;101244.50;2049372;28;19922;-74
2022/09/09 06:50:10;;;;;;;;;;;;;;;30.97;49.90;101248.72;2045605;28;19993;-74
2022/09/09 06:51:35;;;;;;;;;;;;;;;31.07;49.19;101246.31;2058127;28;20030;-74
2022/09/09 06:52:57;;;;;;;;;;;;;;;31.16;49.48;101251.19;2050491;28;19926;-75
2022/09/09 06:54:21;;;;;;;;;;;;;;;31.25;50.00;101258.78;2058510;28;20634;-74
2022/09/09 06:55:44;;;;;;;;;;;;;;;31.38;49.14;101261.63;2052472;28;19949;-75
2022/09/09 06:57:08;;;;;;;;;;;;;;;31.49;49.64;101257.25;2059410;28;19946;-75
2022/09/09 06:58:31;;;;;;;;;;;;;;;31.53;47.45;101256.09;2054240;28;19922;-74
2022/09/09 06:59:55;;;;;;;;;;;;;;;31.52;48.64;101264.38;2049757;28;19938;-75
2022/09/09 07:01:17;;;;;;;;;;;;;;;31.59;49.07;101254.81;2048179;28;19922;-75
2022/09/09 07:02:40;;;;;;;;;;;;;;;31.65;47.80;101258.06;2057934;28;20574;-73
2022/09/09 07:04:07;;;;;;;;;;;;;;;31.65;48.27;101260.78;2054578;28;19922;-76
2022/09/09 07:05:32;;;;;;;;;;;;;;;31.70;48.12;101259.63;2051673;28;19922;-75
2022/09/09 07:06:54;;;;;;;;;;;;;;;31.73;48.01;101263.03;2052192;28;19921;-75
2022/09/09 07:08:18;;;;;;;;;;;;;;;31.80;48.12;101267.13;2050123;28;20357;-74
2022/09/09 07:09:41;;;;;;;;;;;;;;;31.82;47.50;101259.72;2052688;28;20009;-74
2022/09/09 07:11:05;;;;;;;;;;;;;;;31.82;47.47;101258.84;2048315;28;19968;-75
2022/09/09 07:12:30;;;;;;;;;;;;;;;31.82;47.88;101261.56;2051282;28;19925;-74
2022/09/09 07:13:55;;;;;;;;;;;;;;;31.88;47.58;101259.31;2050820;28;20434;-74
2022/09/09 07:15:18;;;;;;;;;;;;;;;31.91;47.68;101266.41;2051203;28;19929;-74